Time;durP1;ratioP1;P1;durP2;ratioP2;P2;SDS_P1;SDS_P2;PMS_P1;PMS_P2;Temp;Humidity;BMP_temperature;BMP_pressure;BME280_temperature;BME280_humidity;BME280_pressure;Samples;Min_cycle;Max_cycle;Signal;HPM_P1;HPM_P2
2021/05/25 00:03:44;;;;;;;6.63;1.92;;;11.40;98.70;;;;;;5910760;40;20076;-71
2021/05/25 00:07:52;;;;;;;4.97;1.85;;;11.40;99.90;;;;;;5914627;39;20060;-71
2021/05/25 00:11:56;;;;;;;3.95;2.00;;;11.30;99.90;;;;;;5904477;40;20053;-70
2021/05/25 00:16:01;;;;;;;3.53;1.77;;;11.30;99.90;;;;;;5909519;40;20048;-71
2021/05/25 00:20:08;;;;;;;3.75;1.65;;;11.80;99.60;;;;;;5909279;40;20053;-71
2021/05/25 00:24:13;;;;;;;5.82;2.28;;;11.30;99.40;;;;;;5911632;40;20057;-71
2021/05/25 00:28:23;;;;;;;5.85;2.10;;;11.30;98.60;;;;;;5905150;40;20071;-70
2021/05/25 00:32:30;;;;;;;6.03;2.17;;;11.40;98.50;;;;;;5909798;40;20366;-71
2021/05/25 00:36:36;;;;;;;6.07;2.45;;;11.40;98.60;;;;;;5902947;40;20400;-71
2021/05/25 00:40:40;;;;;;;6.75;2.30;;;11.40;98.00;;;;;;5911983;40;20130;-70
2021/05/25 00:44:45;;;;;;;3.55;1.60;;;11.50;98.00;;;;;;5912027;40;20041;-71
2021/05/25 00:48:51;;;;;;;4.57;2.00;;;11.50;98.00;;;;;;5913791;40;20122;-70
2021/05/25 00:53:01;;;;;;;7.05;2.40;;;11.50;97.80;;;;;;5913017;40;20742;-71
2021/05/25 00:57:08;;;;;;;4.63;2.70;;;11.50;97.70;;;;;;5909750;40;20084;-71
2021/05/25 01:01:13;;;;;;;4.97;2.00;;;11.50;97.70;;;;;;5912251;40;20079;-71
2021/05/25 01:05:25;;;;;;;5.13;1.95;;;11.60;97.80;;;;;;5913988;40;20029;-71
2021/05/25 01:09:33;;;;;;;3.33;1.88;;;11.60;97.70;;;;;;5912807;40;20601;-71
2021/05/25 01:13:54;;;;;;;5.65;2.00;;;11.60;97.60;;;;;;5900925;40;20114;-70
2021/05/25 01:18:04;;;;;;;5.90;1.65;;;11.60;97.50;;;;;;5913689;40;20052;-71
2021/05/25 01:22:11;;;;;;;5.00;2.20;;;11.60;97.50;;;;;;5903840;39;20052;-70
2021/05/25 01:26:19;;;;;;;3.97;1.60;;;11.60;97.50;;;;;;5903486;40;20553;-70
2021/05/25 01:30:26;;;;;;;3.88;1.83;;;11.60;97.50;;;;;;5905049;40;20151;-70
2021/05/25 01:34:31;;;;;;;4.50;1.92;;;11.60;97.60;;;;;;5912800;40;20952;-70
2021/05/25 01:38:41;;;;;;;3.60;2.13;;;11.60;97.60;;;;;;5912283;40;20318;-70
2021/05/25 01:42:51;;;;;;;5.22;1.92;;;11.60;97.50;;;;;;5913535;39;20049;-71
2021/05/25 01:46:55;;;;;;;4.97;2.13;;;11.60;97.60;;;;;;5914853;40;20045;-71
2021/05/25 01:50:57;;;;;;;7.30;2.40;;;11.60;97.50;;;;;;5913104;40;20049;-71
2021/05/25 01:55:11;;;;;;;6.40;2.40;;;11.60;97.30;;;;;;5910645;40;20049;-71
2021/05/25 01:59:18;;;;;;;5.03;2.17;;;11.60;97.40;;;;;;5905066;40;20040;-71
2021/05/25 02:03:23;;;;;;;6.93;2.20;;;11.60;97.80;;;;;;5911920;40;20045;-71
2021/05/25 02:07:28;;;;;;;4.03;1.98;;;11.60;97.60;;;;;;5915967;40;20483;-71
2021/05/25 02:11:34;;;;;;;3.63;2.22;;;11.60;97.40;;;;;;5912396;40;20053;-71
2021/05/25 02:15:41;;;;;;;5.35;2.47;;;11.50;97.60;;;;;;5910067;40;20056;-71
2021/05/25 02:19:46;;;;;;;6.50;2.58;;;11.60;97.70;;;;;;5913436;40;20059;-70
2021/05/25 02:23:50;;;;;;;4.25;2.50;;;11.60;97.50;;;;;;5912173;40;20081;-71
2021/05/25 02:27:55;;;;;;;4.72;2.50;;;11.50;97.40;;;;;;5904350;40;20392;-71
2021/05/25 02:32:07;;;;;;;5.45;2.15;;;11.50;97.50;;;;;;5911182;40;20065;-71
2021/05/25 02:36:12;;;;;;;4.15;2.15;;;11.50;97.70;;;;;;5904333;40;20053;-71
2021/05/25 02:40:17;;;;;;;5.00;2.38;;;11.50;97.50;;;;;;5903350;40;20081;-71
2021/05/25 02:44:21;;;;;;;5.38;2.40;;;11.50;97.60;;;;;;5904972;40;20061;-71
2021/05/25 02:48:26;;;;;;;4.78;2.13;;;11.50;97.60;;;;;;5914082;40;20154;-71
2021/05/25 02:52:43;;;;;;;3.75;2.45;;;11.50;97.70;;;;;;5912917;40;20110;-71
2021/05/25 02:56:49;;;;;;;4.65;2.00;;;11.50;97.80;;;;;;5914093;40;20045;-71
2021/05/25 03:00:54;;;;;;;5.68;2.33;;;11.80;97.70;;;;;;5906542;40;20061;-71
2021/05/25 03:04:59;;;;;;;5.10;2.17;;;11.50;97.60;;;;;;5915113;40;20065;-71
2021/05/25 03:09:04;;;;;;;4.03;2.22;;;11.50;97.60;;;;;;5906450;40;20067;-71
2021/05/25 03:13:09;;;;;;;4.95;1.75;;;11.50;97.60;;;;;;5904102;40;20061;-71
2021/05/25 03:17:14;;;;;;;6.45;2.20;;;11.50;97.50;;;;;;5912620;40;20092;-71
2021/05/25 03:21:19;;;;;;;4.53;2.22;;;11.60;97.60;;;;;;5910063;39;20138;-72
2021/05/25 03:25:26;;;;;;;5.63;2.60;;;11.50;97.60;;;;;;5902772;40;20055;-71
2021/05/25 03:29:31;;;;;;;9.45;2.45;;;11.50;97.60;;;;;;5911796;40;20045;-71
2021/05/25 03:33:34;;;;;;;6.75;2.45;;;11.50;97.60;;;;;;5910500;40;20081;-71
2021/05/25 03:37:39;;;;;;;6.70;2.40;;;11.50;97.70;;;;;;5908797;40;20060;-71
2021/05/25 03:41:43;;;;;;;6.82;2.40;;;11.50;97.60;;;;;;5903253;40;20272;-71
2021/05/25 03:45:48;;;;;;;4.47;2.15;;;11.50;97.70;;;;;;5904105;40;20060;-70
2021/05/25 03:49:53;;;;;;;4.25;2.50;;;11.50;97.70;;;;;;5911872;40;20568;-71
2021/05/25 03:53:59;;;;;;;4.30;2.50;;;11.50;97.80;;;;;;5911430;40;20052;-71
2021/05/25 04:02:31;;;;;;;5.65;2.63;;;11.60;97.90;;;;;;5914721;40;20188;-70
2021/05/25 04:06:37;;;;;;;3.70;2.47;;;11.60;97.80;;;;;;5911853;40;20057;-71
2021/05/25 04:10:45;;;;;;;4.13;2.45;;;11.60;97.80;;;;;;5913669;40;20075;-70
2021/05/25 04:14:49;;;;;;;8.85;2.90;;;11.60;97.80;;;;;;5913750;40;20413;-74
2021/05/25 04:18:56;;;;;;;5.38;2.60;;;11.60;97.80;;;;;;5912761;40;20053;-75
2021/05/25 04:23:01;;;;;;;7.22;3.20;;;11.70;98.00;;;;;;5906027;40;20081;-75
2021/05/25 04:27:06;;;;;;;6.97;3.45;;;11.70;97.80;;;;;;5903236;39;20417;-75
2021/05/25 04:31:10;;;;;;;6.43;3.25;;;11.70;97.70;;;;;;5915982;40;20074;-76
2021/05/25 04:35:15;;;;;;;4.90;3.22;;;11.70;97.70;;;;;;5902136;40;20146;-77
2021/05/25 04:39:20;;;;;;;7.72;3.53;;;11.80;97.70;;;;;;5910814;40;20430;-75
2021/05/25 04:43:25;;;;;;;6.07;3.30;;;11.80;97.70;;;;;;5910560;40;20080;-75
2021/05/25 04:47:32;;;;;;;6.55;3.88;;;12.20;97.80;;;;;;5905085;40;20091;-75
2021/05/25 04:51:36;;;;;;;9.70;5.40;;;11.80;97.80;;;;;;5910033;40;20711;-75
2021/05/25 04:55:38;;;;;;;12.00;6.47;;;11.80;97.70;;;;;;5912104;40;20053;-74
2021/05/25 04:59:45;;;;;;;10.75;6.97;;;11.80;98.00;;;;;;5904335;40;20061;-75
2021/05/25 05:03:50;;;;;;;11.98;7.57;;;11.80;97.90;;;;;;5902208;40;20060;-75
2021/05/25 05:07:54;;;;;;;12.18;7.53;;;11.70;97.80;;;;;;5913589;40;20127;-75
2021/05/25 05:12:02;;;;;;;13.85;8.07;;;11.90;97.90;;;;;;5903018;40;20328;-75
2021/05/25 05:16:12;;;;;;;9.93;7.65;;;11.90;98.00;;;;;;5912769;40;20060;-75
2021/05/25 05:20:17;;;;;;;11.02;8.43;;;12.00;98.00;;;;;;5913278;40;20443;-75
2021/05/25 05:24:22;;;;;;;13.45;7.95;;;11.90;97.90;;;;;;5912617;40;20053;-75
2021/05/25 05:28:27;;;;;;;11.50;8.38;;;12.00;98.00;;;;;;5905529;40;20057;-75
2021/05/25 05:32:34;;;;;;;11.88;8.23;;;12.10;98.00;;;;;;5913024;40;20049;-75
2021/05/25 05:36:40;;;;;;;9.95;8.20;;;12.10;98.00;;;;;;5908979;40;20421;-74
2021/05/25 05:40:45;;;;;;;13.32;8.70;;;12.10;98.00;;;;;;5900116;40;20084;-74
2021/05/25 05:44:51;;;;;;;12.73;8.60;;;12.10;98.20;;;;;;5902843;40;20055;-75
2021/05/25 05:48:58;;;;;;;11.65;8.32;;;12.20;98.20;;;;;;5910835;40;21368;-74
2021/05/25 05:53:03;;;;;;;11.60;8.30;;;12.20;98.20;;;;;;5904186;40;20044;-75
2021/05/25 05:57:08;;;;;;;13.73;8.65;;;12.20;98.30;;;;;;5902204;40;20061;-74
2021/05/25 06:01:13;;;;;;;12.93;8.98;;;12.20;98.20;;;;;;5905802;40;20069;-74
2021/05/25 06:05:18;;;;;;;10.82;8.98;;;12.30;98.20;;;;;;5910327;40;20060;-75
2021/05/25 06:09:23;;;;;;;13.35;9.88;;;12.30;98.20;;;;;;5914527;40;20045;-75
2021/05/25 06:13:27;;;;;;;11.73;8.85;;;12.40;98.40;;;;;;5905338;40;20535;-75
2021/05/25 06:17:34;;;;;;;12.15;9.68;;;12.40;98.20;;;;;;5893960;40;20057;-75
2021/05/25 06:21:38;;;;;;;11.98;9.38;;;12.50;98.40;;;;;;5904749;40;20146;-75
2021/05/25 06:25:43;;;;;;;12.27;8.65;;;12.60;98.30;;;;;;5913064;40;20041;-75
2021/05/25 06:29:50;;;;;;;9.90;8.88;;;12.70;98.10;;;;;;5914679;40;20076;-75
2021/05/25 06:33:57;;;;;;;10.25;8.82;;;12.80;98.00;;;;;;5912808;40;20294;-75
2021/05/25 06:38:02;;;;;;;9.73;7.55;;;12.80;97.90;;;;;;5914861;40;20053;-75
2021/05/25 06:42:09;;;;;;;9.75;7.40;;;12.80;98.00;;;;;;5907385;40;20056;-67
2021/05/25 06:46:14;;;;;;;10.07;6.47;;;12.80;97.90;;;;;;5898957;40;20049;-68
2021/05/25 06:50:19;;;;;;;8.30;6.47;;;12.80;97.80;;;;;;5906361;40;20166;-68
2021/05/25 06:54:24;;;;;;;7.07;6.25;;;12.70;97.90;;;;;;5907222;40;20511;-68
2021/05/25 06:58:31;;;;;;;7.18;6.15;;;12.70;97.90;;;;;;5900562;40;20087;-67
2021/05/25 07:02:39;;;;;;;8.32;7.30;;;12.70;98.00;;;;;;5904334;40;20500;-68
2021/05/25 07:06:44;;;;;;;7.53;6.53;;;12.70;98.00;;;;;;5901815;40;20166;-67
2021/05/25 07:10:51;;;;;;;8.77;7.13;;;12.70;98.00;;;;;;5914400;40;20086;-67
2021/05/25 07:14:56;;;;;;;9.32;7.65;;;12.60;98.10;;;;;;5904711;40;20882;-67
2021/05/25 07:19:01;;;;;;;9.75;7.85;;;12.60;98.00;;;;;;5912764;40;20085;-67
2021/05/25 07:23:07;;;;;;;10.30;6.78;;;12.60;98.10;;;;;;5912449;40;20053;-67
2021/05/25 07:27:12;;;;;;;13.52;6.72;;;12.50;98.10;;;;;;5911930;40;20303;-67
2021/05/25 07:31:18;;;;;;;12.07;7.32;;;12.50;98.20;;;;;;5903269;40;20057;-67
2021/05/25 07:35:24;;;;;;;11.38;6.05;;;12.40;98.30;;;;;;5905715;40;20510;-67
2021/05/25 07:39:29;;;;;;;6.03;2.90;;;12.70;98.40;;;;;;5901157;40;20067;-67
2021/05/25 07:43:37;;;;;;;5.50;3.30;;;12.50;98.10;;;;;;5914031;40;20029;-67
2021/05/25 07:47:42;;;;;;;8.38;2.70;;;12.60;98.10;;;;;;5901269;40;20065;-66
2021/05/25 07:51:53;;;;;;;9.63;2.60;;;12.60;98.10;;;;;;5913589;40;20080;-66
2021/05/25 07:55:58;;;;;;;5.88;2.00;;;12.70;98.00;;;;;;5915505;40;20061;-67
2021/05/25 08:00:04;;;;;;;6.25;1.70;;;12.80;98.00;;;;;;5910072;40;20416;-67
2021/05/25 08:04:13;;;;;;;8.05;0.88;;;12.80;97.90;;;;;;5910092;40;20052;-67
2021/05/25 08:08:18;;;;;;;4.53;0.65;;;12.90;97.60;;;;;;5893915;40;20208;-68
2021/05/25 08:12:33;;;;;;;2.63;0.40;;;12.90;97.50;;;;;;5909900;40;20439;-67
2021/05/25 08:16:40;;;;;;;2.85;0.88;;;12.90;97.30;;;;;;5912707;40;20037;-67
2021/05/25 08:20:45;;;;;;;2.45;0.52;;;12.80;97.40;;;;;;5913855;40;20087;-68
2021/05/25 08:25:00;;;;;;;4.00;0.52;;;12.80;97.50;;;;;;5907068;40;20065;-67
2021/05/25 08:29:04;;;;;;;4.28;0.73;;;12.90;97.50;;;;;;5902518;40;20462;-69
2021/05/25 08:33:10;;;;;;;3.60;0.70;;;12.90;97.20;;;;;;5901052;40;20134;-68
2021/05/25 08:37:19;;;;;;;3.75;0.60;;;13.00;97.00;;;;;;5903670;40;20547;-68
2021/05/25 08:41:23;;;;;;;1.83;0.60;;;12.90;97.30;;;;;;5909986;40;20340;-68
2021/05/25 08:45:31;;;;;;;2.92;0.75;;;12.90;97.40;;;;;;5908008;40;20045;-68
2021/05/25 08:49:36;;;;;;;2.17;0.55;;;12.90;97.40;;;;;;5910894;40;20417;-68
2021/05/25 08:53:41;;;;;;;4.07;0.90;;;12.90;97.10;;;;;;5911225;40;20472;-68
2021/05/25 08:57:46;;;;;;;3.25;0.50;;;12.90;96.90;;;;;;5911490;40;20057;-68
2021/05/25 09:01:50;;;;;;;2.25;0.68;;;13.00;96.80;;;;;;5902267;40;20061;-68
2021/05/25 09:06:09;;;;;;;5.20;0.50;;;13.10;96.50;;;;;;5911554;40;20166;-68
2021/05/25 09:10:43;;;;;;;1.88;0.50;;;13.10;96.70;;;;;;5893400;39;20071;-68
2021/05/25 09:14:50;;;;;;;2.25;0.47;;;13.00;96.60;;;;;;5909638;40;20084;-68
2021/05/25 09:18:58;;;;;;;1.60;0.40;;;13.00;96.40;;;;;;5901262;40;20129;-68
2021/05/25 09:23:03;;;;;;;5.72;0.85;;;12.90;96.70;;;;;;5910484;40;20393;-69
2021/05/25 09:27:05;;;;;;;1.75;0.50;;;12.90;96.60;;;;;;5908669;40;20398;-69
2021/05/25 09:31:12;;;;;;;4.82;0.60;;;12.90;96.60;;;;;;5911834;40;20077;-69
2021/05/25 09:35:21;;;;;;;3.67;0.60;;;13.00;96.60;;;;;;5895865;40;20095;-69
2021/05/25 09:39:53;;;;;;;1.50;0.40;;;13.00;96.30;;;;;;5911470;40;20137;-69
2021/05/25 09:43:58;;;;;;;1.70;0.50;;;13.10;96.10;;;;;;5909331;40;20044;-69
2021/05/25 09:48:07;;;;;;;1.75;0.50;;;13.20;96.40;;;;;;5912576;40;20510;-69
2021/05/25 09:52:12;;;;;;;1.95;0.50;;;13.30;96.30;;;;;;5893687;40;20694;-69
2021/05/25 09:56:31;;;;;;;2.87;0.53;;;13.20;96.20;;;;;;5901792;40;20056;-69
2021/05/25 10:00:38;;;;;;;3.03;0.70;;;13.20;96.20;;;;;;5913931;40;20048;-69
2021/05/25 10:04:59;;;;;;;1.77;0.60;;;13.20;96.40;;;;;;5893965;40;20587;-69
2021/05/25 10:09:08;;;;;;;2.53;0.60;;;13.20;96.70;;;;;;5911909;40;20115;-69
2021/05/25 10:13:14;;;;;;;3.95;0.60;;;13.10;96.90;;;;;;5911324;40;20092;-68
2021/05/25 10:17:32;;;;;;;2.53;0.60;;;13.10;97.00;;;;;;5911626;40;20057;-68
2021/05/25 10:21:35;;;;;;;1.52;0.40;;;13.30;97.10;;;;;;5914991;40;20060;-68
2021/05/25 10:25:47;;;;;;;1.15;0.50;;;13.40;96.50;;;;;;5913755;40;20045;-68
2021/05/25 10:29:57;;;;;;;3.05;1.00;;;13.50;96.50;;;;;;5903123;40;20064;-69
2021/05/25 10:34:19;;;;;;;2.17;0.60;;;13.50;96.60;;;;;;5914009;39;20045;-68
2021/05/25 10:38:25;;;;;;;1.67;0.38;;;13.70;96.40;;;;;;5913339;40;20397;-68
2021/05/25 10:42:34;;;;;;;0.68;0.45;;;13.70;96.30;;;;;;5906679;40;20455;-69
2021/05/25 10:47:37;;;;;;;1.42;0.50;;;13.80;95.60;;;;;;5914207;40;20326;-68
2021/05/25 10:51:53;;;;;;;1.95;0.50;;;13.80;95.10;;;;;;5902354;40;20052;-68
2021/05/25 10:56:39;;;;;;;1.85;0.50;;;14.10;94.90;;;;;;5913743;40;20053;-68
2021/05/25 11:00:45;;;;;;;2.90;0.75;;;13.90;95.30;;;;;;5886255;40;20443;-68
2021/05/25 11:04:52;;;;;;;1.30;0.55;;;13.60;95.90;;;;;;5904239;40;20103;-68
2021/05/25 11:09:22;;;;;;;11.57;2.22;;;13.40;96.10;;;;;;5913004;40;20057;-67
2021/05/25 11:13:30;;;;;;;2.15;0.70;;;13.30;95.80;;;;;;5915767;40;20506;-68
2021/05/25 11:17:35;;;;;;;1.73;0.70;;;13.20;95.70;;;;;;5913262;40;20149;-67
2021/05/25 11:25:56;;;;;;;2.72;0.90;;;13.20;95.80;;;;;;5906500;40;20044;-67
2021/05/25 11:30:08;;;;;;;2.55;1.00;;;13.20;95.70;;;;;;5914489;40;20071;-67
2021/05/25 11:34:20;;;;;;;3.60;0.90;;;13.20;96.00;;;;;;5895038;40;20230;-68
2021/05/25 11:38:27;;;;;;;1.77;0.85;;;13.30;95.80;;;;;;5911377;40;20045;-68
2021/05/25 11:42:33;;;;;;;2.38;1.02;;;13.30;95.70;;;;;;5913507;40;20063;-68
2021/05/25 11:46:43;;;;;;;3.30;0.80;;;13.50;95.80;;;;;;5904847;40;20073;-69
2021/05/25 11:50:50;;;;;;;1.15;0.50;;;13.50;95.50;;;;;;5909429;40;20061;-69
2021/05/25 11:55:00;;;;;;;2.22;0.45;;;13.50;95.30;;;;;;5904311;40;20412;-68
2021/05/25 11:59:31;;;;;;;3.47;0.50;;;13.70;95.10;;;;;;5915876;40;20134;-68
2021/05/25 12:03:38;;;;;;;0.90;0.28;;;13.90;94.20;;;;;;5914488;40;20068;-68
2021/05/25 12:07:47;;;;;;;1.15;0.45;;;14.00;94.10;;;;;;5914110;39;20430;-68
2021/05/25 12:12:00;;;;;;;1.92;0.55;;;14.10;94.00;;;;;;5905762;40;20041;-68
2021/05/25 12:16:13;;;;;;;1.98;0.70;;;14.10;94.10;;;;;;5903424;40;20041;-68
2021/05/25 12:20:20;;;;;;;1.52;0.57;;;14.10;93.40;;;;;;5912502;40;20057;-69
2021/05/25 12:24:29;;;;;;;1.65;0.40;;;14.20;93.40;;;;;;5901790;40;20162;-69
2021/05/25 12:28:38;;;;;;;2.13;0.52;;;14.10;93.40;;;;;;5914269;40;20049;-69
2021/05/25 12:32:49;;;;;;;1.10;0.40;;;14.00;94.00;;;;;;5913534;40;20049;-69
2021/05/25 12:36:58;;;;;;;2.58;0.75;;;13.90;94.20;;;;;;5914893;40;20096;-69
2021/05/25 12:41:07;;;;;;;3.80;0.70;;;14.00;94.00;;;;;;5909491;40;20064;-69
2021/05/25 12:45:15;;;;;;;3.28;0.70;;;14.00;93.90;;;;;;5894474;40;20119;-69
2021/05/25 12:49:27;;;;;;;2.47;0.50;;;14.10;93.80;;;;;;5906290;40;20052;-69
2021/05/25 12:53:50;;;;;;;2.10;0.60;;;14.20;93.40;;;;;;5911575;40;20061;-69
2021/05/25 12:57:55;;;;;;;3.47;0.88;;;14.30;93.40;;;;;;5912257;40;20052;-68
2021/05/25 13:02:03;;;;;;;1.60;0.60;;;14.30;93.70;;;;;;5913076;40;20087;-68
2021/05/25 13:06:30;;;;;;;3.33;1.00;;;14.20;93.70;;;;;;5912089;40;20405;-68
2021/05/25 13:10:54;;;;;;;1.55;0.60;;;14.10;93.80;;;;;;5916819;40;20100;-68
2021/05/25 13:15:05;;;;;;;1.23;0.60;;;14.10;93.90;;;;;;5915538;40;20126;-68
2021/05/25 13:19:09;;;;;;;3.75;0.93;;;14.00;93.90;;;;;;5911847;40;20152;-69
2021/05/25 13:23:27;;;;;;;3.60;0.80;;;14.00;94.00;;;;;;5911061;40;20061;-69
2021/05/25 13:27:39;;;;;;;3.08;1.00;;;14.00;94.10;;;;;;5907662;40;20075;-69
2021/05/25 13:31:44;;;;;;;4.05;0.98;;;14.00;94.10;;;;;;5913865;40;20158;-69
2021/05/25 13:35:51;;;;;;;2.00;0.80;;;14.00;94.20;;;;;;5913289;40;20142;-69
2021/05/25 13:39:59;;;;;;;2.25;0.70;;;14.00;94.20;;;;;;5899194;40;20053;-69
2021/05/25 13:44:08;;;;;;;2.67;1.00;;;13.90;94.20;;;;;;5901704;40;20049;-69
2021/05/25 13:48:13;;;;;;;4.90;0.80;;;13.90;94.20;;;;;;5908445;40;20566;-69
2021/05/25 13:52:21;;;;;;;1.92;0.95;;;13.80;94.40;;;;;;5898870;40;20138;-69
2021/05/25 13:56:41;;;;;;;1.75;0.60;;;13.90;94.10;;;;;;5912303;40;20060;-69
2021/05/25 14:01:23;;;;;;;4.20;0.82;;;14.00;94.00;;;;;;5904705;40;20434;-68
2021/05/25 14:05:33;;;;;;;2.45;0.70;;;14.10;93.60;;;;;;5904560;40;20307;-68
2021/05/25 14:09:38;;;;;;;1.88;0.80;;;14.40;93.20;;;;;;5905233;40;20069;-69
2021/05/25 14:13:43;;;;;;;3.22;0.68;;;14.60;93.10;;;;;;5894849;40;20431;-68
2021/05/25 14:17:52;;;;;;;2.78;0.50;;;14.60;92.20;;;;;;5895942;40;20405;-69
2021/05/25 14:22:01;;;;;;;4.30;0.70;;;14.50;92.50;;;;;;5902625;40;20656;-68
2021/05/25 14:26:06;;;;;;;3.72;0.70;;;14.40;92.90;;;;;;5906637;40;20130;-68
2021/05/25 14:30:12;;;;;;;3.83;0.80;;;14.40;92.80;;;;;;5903463;40;20076;-69
2021/05/25 14:34:16;;;;;;;3.00;0.65;;;14.30;92.80;;;;;;5911988;40;20104;-69
2021/05/25 14:38:22;;;;;;;1.67;0.60;;;14.20;93.20;;;;;;5908495;40;20060;-69
2021/05/25 14:42:29;;;;;;;1.42;0.40;;;14.20;93.00;;;;;;5910209;40;20173;-68
2021/05/25 14:46:39;;;;;;;2.42;0.40;;;14.30;92.20;;;;;;5901683;39;20309;-69
2021/05/25 14:50:44;;;;;;;1.65;0.38;;;14.30;92.10;;;;;;5897769;40;20580;-69
2021/05/25 14:54:51;;;;;;;1.02;0.20;;;14.30;91.90;;;;;;5899756;40;20056;-69
2021/05/25 14:58:58;;;;;;;1.88;0.40;;;14.20;92.50;;;;;;5900731;40;20064;-69
2021/05/25 15:03:07;;;;;;;2.67;1.25;;;14.20;92.10;;;;;;5912165;40;20379;-69
2021/05/25 15:07:29;;;;;;;1.30;0.40;;;14.20;92.30;;;;;;5907765;40;20065;-69
2021/05/25 15:11:34;;;;;;;3.75;0.70;;;14.30;92.50;;;;;;5900448;40;20069;-69
2021/05/25 15:15:45;;;;;;;1.40;0.40;;;14.30;92.20;;;;;;5906861;40;20064;-69
2021/05/25 15:19:52;;;;;;;2.55;0.93;;;14.20;92.50;;;;;;5907536;40;20052;-69
2021/05/25 15:24:01;;;;;;;3.50;0.68;;;14.10;92.40;;;;;;5910872;40;20064;-69
2021/05/25 15:28:07;;;;;;;1.13;0.50;;;14.00;92.90;;;;;;5912205;40;20076;-69
2021/05/25 15:32:11;;;;;;;1.65;0.50;;;14.10;92.60;;;;;;5897680;40;20111;-69
2021/05/25 15:36:16;;;;;;;1.08;0.50;;;14.20;92.70;;;;;;5907162;40;20126;-68
2021/05/25 15:40:21;;;;;;;4.10;0.70;;;14.20;92.60;;;;;;5912876;40;20053;-69
2021/05/25 15:44:26;;;;;;;1.83;0.70;;;14.20;92.80;;;;;;5913001;40;20048;-69
2021/05/25 15:48:31;;;;;;;3.58;0.50;;;14.80;92.80;;;;;;5905322;40;20065;-68
2021/05/25 15:52:35;;;;;;;0.90;0.40;;;14.30;92.20;;;;;;5900786;40;20057;-68
2021/05/25 15:56:40;;;;;;;2.30;0.52;;;14.20;92.30;;;;;;5908000;40;20182;-68
2021/05/25 16:00:47;;;;;;;1.83;0.70;;;14.00;92.50;;;;;;5911014;40;20207;-68
2021/05/25 16:04:48;;;;;;;2.53;0.40;;;14.00;92.50;;;;;;5899773;40;20096;-67
2021/05/25 16:08:53;;;;;;;4.20;0.77;;;14.10;92.60;;;;;;5909112;40;20431;-68
2021/05/25 16:13:02;;;;;;;2.15;0.50;;;14.10;92.10;;;;;;5898810;40;20049;-68
2021/05/25 16:17:09;;;;;;;2.33;0.60;;;14.10;92.00;;;;;;5909340;40;20433;-68
2021/05/25 16:21:14;;;;;;;3.75;0.90;;;14.00;92.10;;;;;;5896036;40;20131;-68
2021/05/25 16:25:35;;;;;;;4.13;0.80;;;14.00;92.00;;;;;;5909443;40;20041;-68
2021/05/25 16:29:41;;;;;;;4.68;0.93;;;13.90;92.00;;;;;;5898947;40;20064;-68
2021/05/25 16:33:46;;;;;;;5.45;0.80;;;13.80;92.00;;;;;;5910172;40;20150;-68
2021/05/25 16:37:51;;;;;;;4.05;0.70;;;13.70;92.20;;;;;;5899018;40;20116;-68
2021/05/25 16:41:58;;;;;;;4.68;1.10;;;13.60;92.20;;;;;;5899863;40;20060;-68
2021/05/25 16:46:03;;;;;;;2.22;0.82;;;13.60;92.50;;;;;;5900088;40;20069;-69
2021/05/25 16:50:10;;;;;;;1.70;0.60;;;13.60;92.40;;;;;;5902518;40;20123;-69
2021/05/25 16:54:12;;;;;;;3.80;1.00;;;13.50;92.60;;;;;;5904056;40;20085;-69
2021/05/25 16:58:23;;;;;;;4.97;1.60;;;13.50;92.50;;;;;;5911241;40;20052;-68
2021/05/25 17:02:48;;;;;;;2.22;0.77;;;13.50;92.60;;;;;;5910665;40;20052;-68
2021/05/25 17:11:30;;;;;;;5.63;1.55;;;12.80;92.40;;;;;;5911940;40;20283;-68
2021/05/25 17:19:58;;;;;;;3.38;1.13;;;13.50;92.40;;;;;;5910960;40;20096;-68
2021/05/25 17:24:06;;;;;;;4.10;1.20;;;13.40;92.50;;;;;;5911381;40;20045;-68
2021/05/25 17:28:10;;;;;;;5.97;1.42;;;13.40;92.70;;;;;;5908571;40;20056;-68
2021/05/25 17:32:20;;;;;;;3.83;1.10;;;13.40;92.70;;;;;;5903314;40;20145;-68
2021/05/25 17:36:44;;;;;;;7.10;1.60;;;13.30;92.70;;;;;;5902317;40;20384;-68
2021/05/25 17:40:50;;;;;;;2.83;1.10;;;13.30;92.90;;;;;;5912625;40;20603;-69
2021/05/25 17:44:57;;;;;;;3.85;1.00;;;13.20;93.00;;;;;;5912401;40;20311;-68
2021/05/25 17:49:03;;;;;;;6.07;1.30;;;13.20;93.00;;;;;;5906393;40;20053;-68
2021/05/25 17:53:08;;;;;;;4.85;1.75;;;13.20;93.10;;;;;;5909945;40;20052;-70
2021/05/25 17:57:13;;;;;;;6.68;1.95;;;13.10;93.30;;;;;;5909209;40;20063;-68
2021/05/25 18:01:19;;;;;;;10.35;1.92;;;13.00;93.40;;;;;;5911986;40;20060;-68
2021/05/25 18:05:27;;;;;;;5.20;1.77;;;13.00;93.40;;;;;;5916682;40;20048;-68
2021/05/25 18:09:35;;;;;;;6.90;1.33;;;13.00;93.60;;;;;;5905630;40;20086;-68
2021/05/25 18:13:40;;;;;;;4.85;1.33;;;13.00;93.60;;;;;;5916860;40;20130;-68
2021/05/25 18:17:47;;;;;;;5.85;1.88;;;12.80;93.80;;;;;;5911380;40;20048;-68
2021/05/25 18:21:52;;;;;;;6.78;2.20;;;12.90;93.80;;;;;;5909784;39;20061;-68
2021/05/25 18:25:59;;;;;;;5.68;1.40;;;12.90;93.90;;;;;;5911777;40;20048;-68
2021/05/25 18:30:05;;;;;;;3.92;1.33;;;12.80;94.00;;;;;;5917750;40;20061;-69
2021/05/25 18:38:29;;;;;;;5.13;1.38;;;12.80;94.10;;;;;;5911716;40;20060;-69
2021/05/25 18:42:37;;;;;;;5.20;1.55;;;12.70;94.10;;;;;;5900586;40;20055;-70
2021/05/25 18:46:41;;;;;;;6.32;1.65;;;12.70;94.60;;;;;;5914191;40;20061;-69
2021/05/25 18:50:49;;;;;;;5.85;1.40;;;12.60;94.60;;;;;;5916807;40;20146;-69
2021/05/25 18:54:55;;;;;;;6.82;1.58;;;12.60;94.40;;;;;;5915466;40;20145;-70
2021/05/25 18:59:07;;;;;;;4.45;2.05;;;12.50;94.50;;;;;;5913775;40;20057;-69
2021/05/25 19:03:12;;;;;;;6.57;2.30;;;12.40;94.70;;;;;;5903290;40;20057;-69
2021/05/25 19:07:17;;;;;;;10.85;3.72;;;12.40;94.70;;;;;;5913870;40;20061;-69
2021/05/25 19:11:22;;;;;;;3.28;1.67;;;12.40;94.70;;;;;;5913759;40;20384;-69
2021/05/25 19:15:31;;;;;;;3.05;1.67;;;12.30;94.70;;;;;;5912551;40;20061;-69
2021/05/25 19:19:54;;;;;;;1.58;0.60;;;12.30;95.00;;;;;;5914863;40;20060;-69
2021/05/25 19:24:20;;;;;;;3.40;0.68;;;12.10;95.30;;;;;;5914410;40;20049;-69
2021/05/25 19:28:26;;;;;;;2.40;0.85;;;12.00;95.70;;;;;;5916117;40;20067;-70
2021/05/25 19:32:30;;;;;;;2.67;0.95;;;11.90;95.90;;;;;;5906845;40;20379;-70
2021/05/25 19:36:37;;;;;;;1.63;1.10;;;11.80;95.90;;;;;;5912326;40;20072;-70
2021/05/25 19:40:46;;;;;;;2.95;1.35;;;11.70;96.30;;;;;;5905613;40;20055;-70
2021/05/25 19:44:51;;;;;;;4.10;1.92;;;11.60;96.20;;;;;;5904644;40;20051;-70
2021/05/25 19:48:56;;;;;;;5.68;1.50;;;11.60;96.20;;;;;;5913454;40;20114;-70
2021/05/25 19:53:00;;;;;;;3.85;2.10;;;11.50;96.40;;;;;;5903381;40;20055;-69
2021/05/25 19:57:06;;;;;;;4.82;2.03;;;11.50;96.50;;;;;;5904559;40;20056;-69
2021/05/25 20:01:11;;;;;;;4.97;1.75;;;11.50;96.30;;;;;;5904622;40;20123;-70
2021/05/25 20:05:17;;;;;;;3.80;2.00;;;11.40;96.50;;;;;;5902973;40;20138;-69
2021/05/25 20:09:24;;;;;;;6.03;2.38;;;11.40;96.60;;;;;;5915359;40;20057;-70
2021/05/25 20:13:30;;;;;;;6.43;2.40;;;11.30;96.60;;;;;;5912516;40;20065;-69
2021/05/25 20:17:35;;;;;;;5.78;2.40;;;11.30;96.70;;;;;;5903080;40;20346;-70
2021/05/25 20:21:40;;;;;;;4.75;2.17;;;11.20;96.70;;;;;;5903692;40;20060;-69
2021/05/25 20:25:45;;;;;;;4.60;2.30;;;11.20;96.80;;;;;;5909875;40;20087;-69
2021/05/25 20:29:50;;;;;;;5.07;1.80;;;11.20;96.80;;;;;;5906476;40;20053;-68
2021/05/25 20:38:09;;;;;;;6.75;2.00;;;11.20;96.80;;;;;;5912346;40;20475;-69
2021/05/25 20:42:14;;;;;;;4.85;2.00;;;11.20;97.00;;;;;;5901916;40;20036;-69
2021/05/25 20:46:18;;;;;;;3.60;2.17;;;11.10;96.80;;;;;;5901927;40;20643;-70
2021/05/25 20:50:28;;;;;;;5.68;2.35;;;11.00;96.80;;;;;;5905490;40;20062;-70
2021/05/25 20:54:33;;;;;;;5.18;2.55;;;11.00;97.00;;;;;;5901704;40;20123;-70
2021/05/25 20:58:40;;;;;;;7.93;2.95;;;11.00;96.90;;;;;;5912253;40;20052;-70
2021/05/25 21:02:48;;;;;;;5.78;2.70;;;11.00;96.90;;;;;;5911451;40;20068;-70
2021/05/25 21:06:55;;;;;;;8.90;2.95;;;10.90;97.00;;;;;;5905625;40;20452;-70
2021/05/25 21:11:00;;;;;;;5.68;2.78;;;10.90;97.00;;;;;;5915798;40;20063;-67
2021/05/25 21:15:06;;;;;;;9.15;3.40;;;10.90;97.00;;;;;;5912404;40;20044;-68
2021/05/25 21:19:11;;;;;;;10.48;3.70;;;10.90;97.10;;;;;;5907380;40;20072;-68
2021/05/25 21:23:20;;;;;;;10.40;3.95;;;10.80;97.20;;;;;;5914571;40;20142;-69
2021/05/25 21:27:25;;;;;;;11.13;3.65;;;10.80;97.20;;;;;;5906201;40;20045;-68
2021/05/25 21:31:30;;;;;;;12.35;4.15;;;10.90;97.20;;;;;;5913757;40;20526;-68
2021/05/25 21:35:36;;;;;;;10.98;4.18;;;10.80;97.20;;;;;;5914157;40;20078;-69
2021/05/25 21:39:42;;;;;;;9.27;4.57;;;10.70;97.20;;;;;;5903641;40;20325;-67
2021/05/25 21:43:48;;;;;;;8.93;4.20;;;10.10;97.00;;;;;;5905471;40;20042;-68
2021/05/25 21:47:53;;;;;;;9.30;4.50;;;10.80;97.60;;;;;;5916253;40;20048;-68
2021/05/25 21:51:58;;;;;;;11.95;4.70;;;10.70;97.50;;;;;;5905475;40;20122;-68
2021/05/25 21:56:05;;;;;;;6.88;3.30;;;10.60;97.30;;;;;;5913445;40;20414;-69